Time;durP1;ratioP1;P1;durP2;ratioP2;P2;SDS_P1;SDS_P2;PMS_P1;PMS_P2;Temp;Humidity;BMP_temperature;BMP_pressure;BME280_temperature;BME280_humidity;BME280_pressure;Samples;Min_cycle;Max_cycle;Signal;HPM_P1;HPM_P2
2023/06/18 00:00:25;;;;;;;6.55;4.03;;;;;;;;;;10315329;28;20064;-61
2023/06/18 00:05:23;;;;;;;7.82;3.42;;;;;;;;;;10315244;28;20098;-60
2023/06/18 00:10:21;;;;;;;3.92;3.63;;;;;;;;;;10314559;28;20067;-60
2023/06/18 00:15:22;;;;;;;7.45;4.43;;;;;;;;;;10314428;28;20458;-60
2023/06/18 00:20:20;;;;;;;7.35;4.28;;;;;;;;;;10313037;28;20090;-60
2023/06/18 00:25:18;;;;;;;5.30;3.97;;;;;;;;;;10312545;28;20072;-60
2023/06/18 00:30:17;;;;;;;5.55;3.92;;;;;;;;;;10312719;28;20442;-61
2023/06/18 00:35:17;;;;;;;8.18;3.85;;;;;;;;;;10312938;28;20076;-60
2023/06/18 00:40:16;;;;;;;4.00;3.45;;;;;;;;;;10327709;28;20528;-60
2023/06/18 00:45:14;;;;;;;4.80;4.25;;;;;;;;;;10314174;28;20068;-60
2023/06/18 00:50:14;;;;;;;7.40;4.28;;;;;;;;;;10313738;28;20071;-60
2023/06/18 00:55:16;;;;;;;4.32;3.78;;;;;;;;;;10312593;28;20179;-61
2023/06/18 01:00:15;;;;;;;5.20;4.45;;;;;;;;;;10312620;28;20083;-61
2023/06/18 01:05:16;;;;;;;7.13;3.85;;;;;;;;;;10314375;28;20080;-61
2023/06/18 01:10:20;;;;;;;11.35;4.50;;;;;;;;;;10325932;28;20079;-61
2023/06/18 01:15:19;;;;;;;9.05;5.40;;;;;;;;;;10325920;28;20064;-60
2023/06/18 01:20:19;;;;;;;8.90;4.90;;;;;;;;;;10326189;28;20083;-61
2023/06/18 01:25:19;;;;;;;5.90;4.50;;;;;;;;;;10341973;28;20083;-60
2023/06/18 01:30:18;;;;;;;10.18;5.00;;;;;;;;;;10316199;28;20072;-60
2023/06/18 01:35:16;;;;;;;9.77;5.70;;;;;;;;;;10326943;28;20068;-61
2023/06/18 01:40:29;;;;;;;7.03;4.38;;;;;;;;;;10326757;28;20064;-60
2023/06/18 01:45:30;;;;;;;4.97;3.88;;;;;;;;;;10324471;28;20060;-61
2023/06/18 01:50:29;;;;;;;6.05;5.10;;;;;;;;;;10324582;28;20064;-60
2023/06/18 01:55:29;;;;;;;5.25;4.30;;;;;;;;;;10321926;28;20068;-61
2023/06/18 02:00:27;;;;;;;4.85;4.32;;;;;;;;;;10324149;28;20080;-60
2023/06/18 02:05:26;;;;;;;6.95;4.63;;;;;;;;;;10326535;28;20969;-60
2023/06/18 02:10:25;;;;;;;6.15;4.70;;;;;;;;;;10325920;28;20080;-61
2023/06/18 02:15:24;;;;;;;8.45;4.65;;;;;;;;;;10324830;28;20099;-61
2023/06/18 02:20:23;;;;;;;5.00;3.92;;;;;;;;;;10319236;28;20064;-61
2023/06/18 02:25:28;;;;;;;5.03;4.60;;;;;;;;;;10318777;28;20064;-60
2023/06/18 02:30:30;;;;;;;7.50;4.38;;;;;;;;;;10315853;28;20091;-60
2023/06/18 02:35:29;;;;;;;5.07;4.57;;;;;;;;;;10318922;28;20122;-60
2023/06/18 02:40:27;;;;;;;10.55;5.05;;;;;;;;;;10316904;28;20099;-60
2023/06/18 02:45:28;;;;;;;6.25;5.20;;;;;;;;;;10317752;28;20044;-61
2023/06/18 02:50:28;;;;;;;6.50;5.75;;;;;;;;;;10317703;28;20064;-61
2023/06/18 02:55:31;;;;;;;6.72;5.75;;;;;;;;;;10316567;28;20064;-60
2023/06/18 03:00:30;;;;;;;8.02;5.43;;;;;;;;;;10317457;28;20083;-60
2023/06/18 03:05:29;;;;;;;7.30;5.65;;;;;;;;;;10315161;28;20087;-60
2023/06/18 03:10:28;;;;;;;7.25;5.32;;;;;;;;;;10313948;28;20083;-60
2023/06/18 03:15:27;;;;;;;8.73;5.80;;;;;;;;;;10315912;28;20048;-60
2023/06/18 03:20:27;;;;;;;9.70;5.68;;;;;;;;;;10315233;28;20086;-60
2023/06/18 03:25:30;;;;;;;9.13;5.60;;;;;;;;;;10331939;28;20498;-59
2023/06/18 03:30:29;;;;;;;6.35;4.72;;;;;;;;;;10314274;28;20094;-59
2023/06/18 03:35:29;;;;;;;7.38;5.55;;;;;;;;;;10315248;28;20075;-60
2023/06/18 03:40:27;;;;;;;7.97;5.45;;;;;;;;;;10316416;28;20063;-60
2023/06/18 03:45:27;;;;;;;12.43;5.50;;;;;;;;;;10314331;28;20036;-60
2023/06/18 03:50:25;;;;;;;5.72;5.05;;;;;;;;;;10313119;28;20075;-60
2023/06/18 03:55:24;;;;;;;9.48;5.80;;;;;;;;;;10312440;28;20080;-60
2023/06/18 04:00:23;;;;;;;10.85;5.38;;;;;;;;;;10313847;28;20083;-60
2023/06/18 04:05:24;;;;;;;10.95;5.68;;;;;;;;;;10312472;28;20095;-60
2023/06/18 04:10:23;;;;;;;8.65;5.32;;;;;;;;;;10314082;28;20068;-59
2023/06/18 04:15:21;;;;;;;8.30;6.57;;;;;;;;;;10310503;28;20071;-59
2023/06/18 04:20:21;;;;;;;8.30;6.18;;;;;;;;;;10311482;28;20425;-60
2023/06/18 04:25:21;;;;;;;7.00;6.40;;;;;;;;;;10304347;28;20497;-60
2023/06/18 04:30:23;;;;;;;9.43;6.70;;;;;;;;;;10311165;28;20494;-60
2023/06/18 04:35:23;;;;;;;10.05;6.68;;;;;;;;;;10312438;28;20048;-60
2023/06/18 04:40:24;;;;;;;10.98;7.15;;;;;;;;;;10309925;28;20083;-60
2023/06/18 04:45:23;;;;;;;10.13;7.53;;;;;;;;;;10307137;28;20102;-60
2023/06/18 04:50:21;;;;;;;9.35;6.63;;;;;;;;;;10310100;28;20075;-60
2023/06/18 04:55:22;;;;;;;14.15;7.32;;;;;;;;;;10311093;28;20037;-60
2023/06/18 05:00:23;;;;;;;8.40;7.55;;;;;;;;;;10309019;28;20080;-59
2023/06/18 05:05:24;;;;;;;8.52;7.57;;;;;;;;;;10311119;28;20087;-60
2023/06/18 05:10:24;;;;;;;11.27;8.02;;;;;;;;;;10307503;28;20091;-60
2023/06/18 05:15:24;;;;;;;9.13;8.13;;;;;;;;;;10313152;28;20072;-58
2023/06/18 05:20:23;;;;;;;9.30;7.88;;;;;;;;;;10300925;28;20068;-59
2023/06/18 05:25:24;;;;;;;11.60;7.68;;;;;;;;;;10297900;28;20076;-61
2023/06/18 05:30:24;;;;;;;14.32;8.20;;;;;;;;;;10310865;28;20079;-60
2023/06/18 05:35:23;;;;;;;8.95;8.02;;;;;;;;;;10328152;28;20083;-60
2023/06/18 05:40:27;;;;;;;8.88;7.95;;;;;;;;;;10306819;28;20083;-60
2023/06/18 05:45:31;;;;;;;8.80;7.97;;;;;;;;;;10305502;28;20083;-60
2023/06/18 05:50:29;;;;;;;12.57;8.65;;;;;;;;;;10293152;28;20127;-60
2023/06/18 05:55:28;;;;;;;16.48;9.30;;;;;;;;;;10309633;28;20064;-60
2023/06/18 06:00:26;;;;;;;17.75;9.93;;;;;;;;;;10306140;28;20082;-61
2023/06/18 06:05:26;;;;;;;13.82;9.98;;;;;;;;;;10316122;28;20048;-61
2023/06/18 06:10:25;;;;;;;10.88;9.77;;;;;;;;;;10312435;28;20524;-61
2023/06/18 06:15:23;;;;;;;15.50;10.55;;;;;;;;;;10316153;28;20068;-61
2023/06/18 06:20:22;;;;;;;18.13;10.50;;;;;;;;;;10310147;28;20454;-61
2023/06/18 06:25:22;;;;;;;13.05;10.07;;;;;;;;;;10306840;28;20075;-61
2023/06/18 06:30:20;;;;;;;17.90;11.65;;;;;;;;;;10306091;28;20087;-61
2023/06/18 06:35:20;;;;;;;15.00;11.27;;;;;;;;;;10313419;28;20069;-61
2023/06/18 06:40:18;;;;;;;13.07;11.32;;;;;;;;;;10316729;28;20494;-61
2023/06/18 06:45:18;;;;;;;15.93;10.75;;;;;;;;;;10318521;28;20068;-61
2023/06/18 06:50:48;;;;;;;12.88;11.52;;;;;;;;;;10307225;28;20463;-60
2023/06/18 06:56:07;;;;;;;17.92;11.15;;;;;;;;;;10317234;28;20048;-60
2023/06/18 07:01:09;;;;;;;24.90;16.23;;;;;;;;;;10315932;28;20083;-60
2023/06/18 07:06:08;;;;;;;33.08;30.02;;;;;;;;;;10317309;28;20080;-60
2023/06/18 07:11:07;;;;;;;17.40;11.95;;;;;;;;;;10316366;28;20068;-60
2023/06/18 07:16:05;;;;;;;16.30;11.82;;;;;;;;;;10315630;28;20078;-60
2023/06/18 07:21:05;;;;;;;12.07;10.80;;;;;;;;;;10315686;28;20072;-60
2023/06/18 07:26:03;;;;;;;13.55;10.70;;;;;;;;;;10316829;28;20087;-60
2023/06/18 07:31:02;;;;;;;11.75;10.32;;;;;;;;;;10316662;28;20075;-61
2023/06/18 07:36:00;;;;;;;14.85;10.95;;;;;;;;;;10316133;28;20083;-60
2023/06/18 07:41:00;;;;;;;15.27;12.75;;;;;;;;;;10313846;28;20087;-60
2023/06/18 07:45:58;;;;;;;14.25;11.07;;;;;;;;;;10313920;28;20469;-60
2023/06/18 07:50:56;;;;;;;12.10;11.00;;;;;;;;;;10315880;28;20068;-60
2023/06/18 07:55:55;;;;;;;15.15;10.48;;;;;;;;;;10315300;28;20072;-60
2023/06/18 08:00:54;;;;;;;12.45;11.25;;;;;;;;;;10315633;28;20060;-59
2023/06/18 08:05:52;;;;;;;11.65;10.50;;;;;;;;;;10308640;28;20068;-60
2023/06/18 08:10:51;;;;;;;11.88;10.68;;;;;;;;;;10310427;28;20087;-60
2023/06/18 08:15:50;;;;;;;17.60;10.93;;;;;;;;;;10314063;28;20076;-60
2023/06/18 08:20:49;;;;;;;11.27;10.18;;;;;;;;;;10315144;28;20070;-60
2023/06/18 08:25:47;;;;;;;11.55;10.32;;;;;;;;;;10314825;28;20075;-61
2023/06/18 08:30:45;;;;;;;12.38;10.10;;;;;;;;;;10312099;28;20510;-61
2023/06/18 08:35:44;;;;;;;10.43;9.25;;;;;;;;;;10312466;28;20059;-60
2023/06/18 08:40:49;;;;;;;11.45;9.73;;;;;;;;;;10314391;28;20110;-61
2023/06/18 08:45:47;;;;;;;11.23;8.75;;;;;;;;;;10313537;28;20064;-59
2023/06/18 08:50:46;;;;;;;15.75;10.73;;;;;;;;;;10313358;28;20067;-60
2023/06/18 08:55:46;;;;;;;9.13;8.18;;;;;;;;;;10314173;28;20516;-59
2023/06/18 09:00:44;;;;;;;8.80;7.75;;;;;;;;;;10311260;28;20487;-60
2023/06/18 09:05:43;;;;;;;9.13;7.22;;;;;;;;;;10312070;28;20051;-60
2023/06/18 09:10:41;;;;;;;9.88;7.20;;;;;;;;;;10304649;28;20119;-60
2023/06/18 09:15:40;;;;;;;9.40;7.75;;;;;;;;;;10311714;28;20505;-60
2023/06/18 09:20:39;;;;;;;9.88;7.82;;;;;;;;;;10309645;28;20086;-60
2023/06/18 09:25:38;;;;;;;9.38;7.40;;;;;;;;;;10313175;28;20529;-61
2023/06/18 09:30:36;;;;;;;11.25;7.53;;;;;;;;;;10319609;28;20466;-61
2023/06/18 09:35:35;;;;;;;9.10;7.75;;;;;;;;;;10319223;28;20473;-60
2023/06/18 09:40:33;;;;;;;9.10;7.50;;;;;;;;;;10319215;28;20071;-61
2023/06/18 09:45:32;;;;;;;8.25;6.93;;;;;;;;;;10320649;28;20067;-62
2023/06/18 09:50:30;;;;;;;8.15;6.80;;;;;;;;;;10320575;28;20071;-60
2023/06/18 09:55:31;;;;;;;8.55;7.30;;;;;;;;;;10309201;28;20520;-60
2023/06/18 10:00:30;;;;;;;7.40;6.70;;;;;;;;;;10296166;28;20083;-60
2023/06/18 10:05:30;;;;;;;9.13;6.60;;;;;;;;;;10298310;28;20960;-60
2023/06/18 10:10:30;;;;;;;8.00;7.30;;;;;;;;;;10306069;28;20094;-60
2023/06/18 10:15:29;;;;;;;7.32;6.32;;;;;;;;;;10308825;28;20095;-59
2023/06/18 10:20:27;;;;;;;7.00;6.20;;;;;;;;;;10317283;28;20065;-60
2023/06/18 10:25:26;;;;;;;9.35;6.22;;;;;;;;;;10302043;28;20530;-60
2023/06/18 10:30:26;;;;;;;7.88;6.65;;;;;;;;;;10303907;28;20560;-58
2023/06/18 10:35:25;;;;;;;10.13;5.65;;;;;;;;;;10312269;28;20071;-59
2023/06/18 10:40:23;;;;;;;8.88;5.82;;;;;;;;;;10310379;28;20528;-59
2023/06/18 10:45:23;;;;;;;7.28;6.07;;;;;;;;;;10316581;28;20071;-59
2023/06/18 10:50:23;;;;;;;10.95;7.15;;;;;;;;;;10312280;28;20080;-59
2023/06/18 10:55:29;;;;;;;6.25;5.65;;;;;;;;;;10316807;28;20413;-59
2023/06/18 11:00:32;;;;;;;6.05;5.35;;;;;;;;;;10314566;28;20101;-59
2023/06/18 11:05:45;;;;;;;9.13;6.32;;;;;;;;;;10311749;28;20088;-60
2023/06/18 11:10:47;;;;;;;10.93;5.28;;;;;;;;;;10304698;28;20137;-60
2023/06/18 11:15:58;;;;;;;9.90;5.80;;;;;;;;;;10308406;28;20697;-60
2023/06/18 11:20:58;;;;;;;5.75;5.03;;;;;;;;;;10304065;28;20064;-59
2023/06/18 11:25:56;;;;;;;7.38;4.82;;;;;;;;;;10306603;28;20079;-60
2023/06/18 11:30:57;;;;;;;8.65;5.30;;;;;;;;;;10312207;28;20643;-61
2023/06/18 11:36:06;;;;;;;5.88;5.10;;;;;;;;;;10299949;28;20068;-60
2023/06/18 11:41:05;;;;;;;7.40;5.22;;;;;;;;;;10310392;28;20521;-59
2023/06/18 11:46:03;;;;;;;6.35;5.60;;;;;;;;;;10307925;28;20071;-59
2023/06/18 11:51:02;;;;;;;8.90;5.20;;;;;;;;;;10302232;28;20085;-58
2023/06/18 11:56:01;;;;;;;6.05;4.57;;;;;;;;;;10308986;28;20071;-59
2023/06/18 12:00:59;;;;;;;5.63;4.60;;;;;;;;;;10310361;28;20079;-59
2023/06/18 12:05:57;;;;;;;8.10;5.05;;;;;;;;;;10299342;28;20083;-60
2023/06/18 12:10:58;;;;;;;7.70;4.78;;;;;;;;;;10298157;28;20075;-59
2023/06/18 12:16:00;;;;;;;7.53;4.28;;;;;;;;;;10297674;28;20064;-59
2023/06/18 12:20:59;;;;;;;5.90;4.82;;;;;;;;;;10312198;28;20075;-57
2023/06/18 12:25:58;;;;;;;10.93;5.18;;;;;;;;;;10296453;28;20068;-60
2023/06/18 12:30:57;;;;;;;6.88;4.75;;;;;;;;;;10292242;28;20148;-59
2023/06/18 12:35:56;;;;;;;7.55;4.32;;;;;;;;;;10295697;28;20075;-59
2023/06/18 12:40:58;;;;;;;5.63;4.38;;;;;;;;;;10300205;28;20076;-59
2023/06/18 12:45:58;;;;;;;5.25;4.05;;;;;;;;;;10304938;28;20076;-59
2023/06/18 12:51:00;;;;;;;5.38;4.05;;;;;;;;;;10297179;28;20076;-59
2023/06/18 12:56:00;;;;;;;6.50;3.70;;;;;;;;;;10305753;28;20079;-59
2023/06/18 13:01:00;;;;;;;5.47;3.60;;;;;;;;;;10291880;28;20123;-60
2023/06/18 13:05:59;;;;;;;7.38;3.70;;;;;;;;;;10301614;28;20072;-60
2023/06/18 13:10:57;;;;;;;9.10;3.05;;;;;;;;;;10290058;28;20471;-59
2023/06/18 13:15:55;;;;;;;5.10;2.90;;;;;;;;;;10295618;28;20076;-60
2023/06/18 13:20:59;;;;;;;5.60;3.22;;;;;;;;;;10302613;28;20072;-60
2023/06/18 13:25:58;;;;;;;6.35;3.45;;;;;;;;;;10297446;28;20075;-60
2023/06/18 13:30:57;;;;;;;16.73;9.75;;;;;;;;;;10302358;28;20139;-61
2023/06/18 13:35:57;;;;;;;12.82;8.88;;;;;;;;;;10302523;28;20073;-61
2023/06/18 13:40:58;;;;;;;5.75;3.47;;;;;;;;;;10307012;28;20081;-61
2023/06/18 13:45:57;;;;;;;4.57;3.78;;;;;;;;;;10307685;28;20075;-61
2023/06/18 13:50:56;;;;;;;5.28;4.22;;;;;;;;;;10294948;28;20077;-60
2023/06/18 13:55:55;;;;;;;6.13;3.42;;;;;;;;;;10307078;28;20064;-61
2023/06/18 14:00:53;;;;;;;9.88;3.30;;;;;;;;;;10299816;28;20072;-61
2023/06/18 14:05:51;;;;;;;7.95;3.55;;;;;;;;;;10302471;28;20068;-61
2023/06/18 14:10:51;;;;;;;5.13;3.63;;;;;;;;;;10307915;28;20075;-60
2023/06/18 14:15:49;;;;;;;5.40;3.20;;;;;;;;;;10299913;28;20451;-60
2023/06/18 14:20:47;;;;;;;7.20;3.40;;;;;;;;;;10295986;28;20075;-61
2023/06/18 14:25:46;;;;;;;6.97;4.07;;;;;;;;;;10297046;28;20064;-60
2023/06/18 14:30:45;;;;;;;8.10;3.40;;;;;;;;;;10306638;28;20465;-62
2023/06/18 14:35:44;;;;;;;13.30;11.90;;;;;;;;;;10294898;28;20497;-60
2023/06/18 14:40:42;;;;;;;5.53;3.78;;;;;;;;;;10305208;28;20486;-60
2023/06/18 14:45:40;;;;;;;6.10;3.42;;;;;;;;;;10313220;28;20072;-61
2023/06/18 14:50:40;;;;;;;5.20;4.38;;;;;;;;;;10313328;28;20079;-61
2023/06/18 14:55:40;;;;;;;6.43;2.47;;;;;;;;;;10312639;28;20506;-61
2023/06/18 15:00:38;;;;;;;4.50;3.42;;;;;;;;;;10313533;28;20065;-61
2023/06/18 15:05:36;;;;;;;3.95;2.70;;;;;;;;;;10297007;28;20064;-60
2023/06/18 15:10:36;;;;;;;9.85;3.35;;;;;;;;;;10306586;28;20064;-60
2023/06/18 15:15:34;;;;;;;5.47;3.30;;;;;;;;;;10307230;28;20075;-61
2023/06/18 15:20:36;;;;;;;7.80;4.00;;;;;;;;;;10312574;28;20132;-61
2023/06/18 15:25:36;;;;;;;5.50;2.95;;;;;;;;;;10308729;28;20477;-60
2023/06/18 15:30:34;;;;;;;2.97;2.67;;;;;;;;;;10310622;28;20068;-60
2023/06/18 15:35:32;;;;;;;5.88;4.03;;;;;;;;;;10304824;28;20072;-61
2023/06/18 15:40:31;;;;;;;11.90;4.72;;;;;;;;;;10313468;28;20082;-60
2023/06/18 15:45:30;;;;;;;9.80;7.43;;;;;;;;;;10310296;28;20072;-60
2023/06/18 15:50:28;;;;;;;10.70;5.50;;;;;;;;;;10306084;28;20079;-59
2023/06/18 15:55:27;;;;;;;5.63;4.93;;;;;;;;;;10306511;28;20072;-60
2023/06/18 16:00:25;;;;;;;5.03;2.90;;;;;;;;;;10307059;28;20068;-59
2023/06/18 16:05:24;;;;;;;12.65;11.10;;;;;;;;;;10305026;28;20497;-60
2023/06/18 16:10:23;;;;;;;8.07;3.42;;;;;;;;;;10304406;28;20064;-60
2023/06/18 16:15:21;;;;;;;5.75;2.63;;;;;;;;;;10304093;28;20068;-58
2023/06/18 16:20:20;;;;;;;4.20;2.40;;;;;;;;;;10308174;28;20075;-60
2023/06/18 16:25:20;;;;;;;5.95;3.13;;;;;;;;;;10307426;28;20079;-60
2023/06/18 16:30:20;;;;;;;4.85;3.47;;;;;;;;;;10308391;28;20135;-60
2023/06/18 16:35:18;;;;;;;6.10;2.90;;;;;;;;;;10306720;28;20079;-59
2023/06/18 16:40:16;;;;;;;4.47;3.42;;;;;;;;;;10310020;28;20060;-59
2023/06/18 16:45:16;;;;;;;6.20;3.30;;;;;;;;;;10306440;28;20509;-59
2023/06/18 16:50:15;;;;;;;6.20;3.60;;;;;;;;;;10306745;28;20072;-58
2023/06/18 16:55:13;;;;;;;5.28;3.83;;;;;;;;;;10305563;28;20454;-58
2023/06/18 17:00:11;;;;;;;5.72;3.13;;;;;;;;;;10307320;28;20076;-60
2023/06/18 17:05:11;;;;;;;3.00;2.70;;;;;;;;;;10307636;28;20705;-60
2023/06/18 17:10:10;;;;;;;4.50;2.88;;;;;;;;;;10304566;28;20064;-59
2023/06/18 17:15:09;;;;;;;8.48;3.30;;;;;;;;;;10310222;28;20075;-59
2023/06/18 17:20:09;;;;;;;4.95;2.80;;;;;;;;;;10304169;28;20075;-59
2023/06/18 17:25:10;;;;;;;5.78;3.28;;;;;;;;;;10303058;28;20079;-59
2023/06/18 17:30:10;;;;;;;4.15;2.50;;;;;;;;;;10301438;28;20079;-58
2023/06/18 17:35:08;;;;;;;2.92;2.58;;;;;;;;;;10305988;28;20076;-59
2023/06/18 17:40:07;;;;;;;3.58;3.22;;;;;;;;;;10304731;28;20065;-59
2023/06/18 17:45:08;;;;;;;3.45;2.60;;;;;;;;;;10304335;28;20071;-60
2023/06/18 17:50:06;;;;;;;6.03;2.85;;;;;;;;;;10311252;28;20073;-59
2023/06/18 17:55:05;;;;;;;3.67;2.88;;;;;;;;;;10311926;28;20080;-60
2023/06/18 18:00:04;;;;;;;6.50;2.95;;;;;;;;;;10310997;28;20080;-60
2023/06/18 18:05:05;;;;;;;8.43;3.75;;;;;;;;;;10313684;28;20571;-59
2023/06/18 18:10:04;;;;;;;4.28;3.88;;;;;;;;;;10303848;28;20079;-58
2023/06/18 18:15:02;;;;;;;9.07;5.10;;;;;;;;;;10307329;28;20084;-58
2023/06/18 18:20:00;;;;;;;5.65;4.53;;;;;;;;;;10316871;28;20072;-59
2023/06/18 18:25:00;;;;;;;6.65;4.22;;;;;;;;;;10311528;28;20072;-57
2023/06/18 18:29:58;;;;;;;6.22;4.47;;;;;;;;;;10313619;28;20068;-58
2023/06/18 18:34:57;;;;;;;6.53;2.60;;;;;;;;;;10312007;28;20533;-60
2023/06/18 18:39:55;;;;;;;6.57;2.78;;;;;;;;;;10313320;28;20469;-60
2023/06/18 18:44:54;;;;;;;4.13;3.22;;;;;;;;;;10310136;28;20065;-60
2023/06/18 18:49:53;;;;;;;4.55;3.05;;;;;;;;;;10312567;28;20099;-60
2023/06/18 18:54:51;;;;;;;9.30;3.03;;;;;;;;;;10309433;28;20072;-60
2023/06/18 18:59:49;;;;;;;4.03;3.15;;;;;;;;;;10306639;28;20105;-61
2023/06/18 19:04:51;;;;;;;3.10;2.80;;;;;;;;;;10311939;28;20103;-58
2023/06/18 19:09:49;;;;;;;3.10;2.88;;;;;;;;;;10314640;28;20079;-59
2023/06/18 19:14:47;;;;;;;4.18;3.13;;;;;;;;;;10313793;28;20530;-59
2023/06/18 19:19:47;;;;;;;3.80;3.20;;;;;;;;;;10313601;28;20510;-58
2023/06/18 19:24:46;;;;;;;6.45;2.88;;;;;;;;;;10308934;28;20536;-61
2023/06/18 19:29:45;;;;;;;4.03;3.22;;;;;;;;;;10314470;28;20068;-57
2023/06/18 19:34:43;;;;;;;4.57;3.25;;;;;;;;;;10314084;28;20068;-59
2023/06/18 19:39:41;;;;;;;5.63;2.80;;;;;;;;;;10309943;28;20086;-60
2023/06/18 19:44:41;;;;;;;4.70;2.65;;;;;;;;;;10312202;28;20033;-60
2023/06/18 19:49:39;;;;;;;3.17;2.83;;;;;;;;;;10314234;28;20079;-60
2023/06/18 19:54:39;;;;;;;4.97;3.20;;;;;;;;;;10313269;28;20072;-59
2023/06/18 19:59:38;;;;;;;5.47;3.33;;;;;;;;;;10309092;28;20135;-58
2023/06/18 20:04:37;;;;;;;8.15;3.40;;;;;;;;;;10309740;28;20076;-55
2023/06/18 20:09:36;;;;;;;11.18;3.80;;;;;;;;;;10306187;28;20072;-60
2023/06/18 20:14:34;;;;;;;5.35;2.88;;;;;;;;;;10301630;28;20083;-60
2023/06/18 20:19:32;;;;;;;4.07;3.40;;;;;;;;;;10311332;28;20076;-59
2023/06/18 20:24:32;;;;;;;3.83;3.38;;;;;;;;;;10310543;28;20075;-60
2023/06/18 20:29:30;;;;;;;4.07;3.70;;;;;;;;;;10310247;28;20071;-59
2023/06/18 20:34:28;;;;;;;10.02;3.90;;;;;;;;;;10307911;28;20065;-60
2023/06/18 20:39:26;;;;;;;7.82;3.50;;;;;;;;;;10313159;28;20068;-60
2023/06/18 20:44:26;;;;;;;7.78;4.82;;;;;;;;;;10312948;28;20073;-59
2023/06/18 20:49:26;;;;;;;4.60;3.60;;;;;;;;;;10310547;28;20553;-60
2023/06/18 20:54:24;;;;;;;8.68;4.05;;;;;;;;;;10312194;28;20098;-59
2023/06/18 20:59:22;;;;;;;7.72;4.00;;;;;;;;;;10306181;28;20071;-60
2023/06/18 21:04:22;;;;;;;7.72;3.70;;;;;;;;;;10304454;28;20071;-60
2023/06/18 21:09:20;;;;;;;7.43;4.15;;;;;;;;;;10304604;28;20474;-61
2023/06/18 21:14:18;;;;;;;8.85;4.05;;;;;;;;;;10306165;28;20497;-60
2023/06/18 21:19:16;;;;;;;6.75;4.13;;;;;;;;;;10306898;28;20068;-61
2023/06/18 21:24:16;;;;;;;8.55;4.50;;;;;;;;;;10307478;28;20075;-60
2023/06/18 21:29:14;;;;;;;9.65;3.78;;;;;;;;;;10311250;28;20076;-61
2023/06/18 21:34:12;;;;;;;5.72;4.03;;;;;;;;;;10315775;28;20119;-60
2023/06/18 21:39:11;;;;;;;13.45;4.47;;;;;;;;;;10318789;28;20103;-60
2023/06/18 21:44:11;;;;;;;10.63;4.50;;;;;;;;;;10313751;28;20357;-60
2023/06/18 21:49:09;;;;;;;10.05;4.63;;;;;;;;;;10316341;28;20072;-60
2023/06/18 21:54:07;;;;;;;9.90;4.30;;;;;;;;;;10314230;28;20546;-61
2023/06/18 21:59:05;;;;;;;12.65;5.05;;;;;;;;;;10315611;28;20494;-61
2023/06/18 22:04:05;;;;;;;17.05;6.43;;;;;;;;;;10313652;28;20087;-61
2023/06/18 22:09:03;;;;;;;4.88;4.20;;;;;;;;;;10314028;28;20083;-61
2023/06/18 22:14:01;;;;;;;9.88;4.93;;;;;;;;;;10311834;28;20071;-61
2023/06/18 22:19:11;;;;;;;6.28;4.30;;;;;;;;;;10315305;28;20067;-61
2023/06/18 22:24:11;;;;;;;7.68;4.35;;;;;;;;;;10314742;28;20469;-61
2023/06/18 22:29:09;;;;;;;7.40;4.07;;;;;;;;;;10314347;28;20102;-60
2023/06/18 22:34:07;;;;;;;14.40;4.75;;;;;;;;;;10314163;28;20068;-61
2023/06/18 22:39:07;;;;;;;7.25;4.65;;;;;;;;;;10312283;28;20094;-60
2023/06/18 22:44:05;;;;;;;10.35;4.53;;;;;;;;;;10311034;28;20079;-60
2023/06/18 22:49:03;;;;;;;5.57;4.35;;;;;;;;;;10313704;28;20088;-60
2023/06/18 22:54:02;;;;;;;11.60;5.22;;;;;;;;;;10311969;28;20098;-60
2023/06/18 22:59:02;;;;;;;8.50;4.72;;;;;;;;;;10313490;28;20473;-60
2023/06/18 23:04:00;;;;;;;10.30;4.43;;;;;;;;;;10311368;28;20095;-60
2023/06/18 23:08:59;;;;;;;6.82;4.95;;;;;;;;;;10314565;28;20075;-60
2023/06/18 23:13:57;;;;;;;7.25;5.32;;;;;;;;;;10324019;28;20611;-60
2023/06/18 23:18:57;;;;;;;12.95;5.22;;;;;;;;;;10314134;28;20068;-60
2023/06/18 23:24:01;;;;;;;10.38;4.97;;;;;;;;;;10309853;28;20493;-61
2023/06/18 23:29:01;;;;;;;10.88;4.80;;;;;;;;;;10313024;28;20597;-61
2023/06/18 23:34:04;;;;;;;15.05;6.20;;;;;;;;;;10311260;28;20067;-60
2023/06/18 23:39:03;;;;;;;15.48;4.78;;;;;;;;;;10312720;28;20525;-61
2023/06/18 23:44:01;;;;;;;12.63;5.38;;;;;;;;;;10316740;28;20079;-61
2023/06/18 23:48:59;;;;;;;6.50;4.70;;;;;;;;;;10311845;28;20068;-60
2023/06/18 23:53:59;;;;;;;10.43;5.07;;;;;;;;;;10311027;28;20080;-61
2023/06/18 23:58:57;;;;;;;11.55;5.72;;;;;;;;;;10313697;28;20091;-61
